createdAt,value
2022-11-15T00:01:56.563Z,18.27
2022-11-15T00:05:02.027Z,17.47
2022-11-15T00:08:07.802Z,18.17
2022-11-15T00:11:14.672Z,16.90
2022-11-15T00:14:21.373Z,15.23
2022-11-15T00:17:26.971Z,16.73
2022-11-15T00:20:32.621Z,15.17
2022-11-15T00:23:38.439Z,15.80
2022-11-15T00:26:44.068Z,15.57
2022-11-15T00:29:51.190Z,15.83
2022-11-15T00:32:56.786Z,16.57
2022-11-15T00:36:03.601Z,16.07
2022-11-15T00:39:09.360Z,17.20
2022-11-15T00:42:15.176Z,17.30
2022-11-15T00:45:23.130Z,19.00
2022-11-15T00:48:28.847Z,16.67
2022-11-15T00:51:34.159Z,16.77
2022-11-15T00:54:39.822Z,18.20
2022-11-15T00:57:45.712Z,18.90
2022-11-15T01:00:52.703Z,17.50
2022-11-15T01:04:01.310Z,18.53
2022-11-15T01:07:06.952Z,18.37
2022-11-15T01:10:12.607Z,18.73
2022-11-15T01:13:18.149Z,16.77
2022-11-15T01:16:25.464Z,17.27
2022-11-15T01:19:31.173Z,18.83
2022-11-15T01:22:36.613Z,18.13
2022-11-15T01:25:42.287Z,17.80
2022-11-15T01:28:48.083Z,18.63
2022-11-15T01:31:59.460Z,17.90
2022-11-15T01:35:06.239Z,18.00
2022-11-15T01:38:11.964Z,17.67
2022-11-15T01:41:19.924Z,20.17
2022-11-15T01:44:41.804Z,17.77
2022-11-15T01:47:54.422Z,19.17
2022-11-15T01:51:00.457Z,18.17
2022-11-15T01:54:10.536Z,18.40
2022-11-15T01:57:16.376Z,16.87
2022-11-15T02:00:22.274Z,18.33
2022-11-15T02:03:36.278Z,17.97
2022-11-15T02:06:43.241Z,18.03
2022-11-15T02:09:49.077Z,19.33
2022-11-15T02:12:56.380Z,17.93
2022-11-15T02:16:11.348Z,18.77
2022-11-15T02:19:31.815Z,19.53
2022-11-15T02:22:52.087Z,19.20
2022-11-15T02:26:19.335Z,19.53
2022-11-15T02:29:37.628Z,19.20
2022-11-15T02:32:50.005Z,19.30
2022-11-15T02:36:02.114Z,18.67
2022-11-15T02:39:13.158Z,17.90
2022-11-15T02:42:41.441Z,20.37
2022-11-15T02:45:50.669Z,17.40
2022-11-15T02:48:58.254Z,17.97
2022-11-15T02:52:04.275Z,17.73
2022-11-15T02:55:28.622Z,19.13
2022-11-15T02:58:59.470Z,18.03
2022-11-15T03:02:18.872Z,18.33
2022-11-15T03:05:31.889Z,19.33
2022-11-15T03:08:48.102Z,19.43
2022-11-15T03:12:01.343Z,19.40
2022-11-15T03:15:13.102Z,17.40
2022-11-15T03:18:23.732Z,18.37
2022-11-15T03:21:33.712Z,19.47
2022-11-15T03:24:40.933Z,17.90
2022-11-15T03:27:51.714Z,18.07
2022-11-15T03:30:58.932Z,18.63
2022-11-15T03:34:09.771Z,17.33
2022-11-15T03:37:18.496Z,16.20
2022-11-15T03:40:39.215Z,17.40
2022-11-15T03:43:53.048Z,18.73
2022-11-15T03:47:05.610Z,17.17
2022-11-15T03:50:14.624Z,17.97
2022-11-15T03:53:21.629Z,16.47
2022-11-15T03:56:27.078Z,18.03
2022-11-15T03:59:32.190Z,17.33
2022-11-15T04:02:37.399Z,17.33
2022-11-15T04:05:42.753Z,19.57
2022-11-15T04:08:49.428Z,16.97
2022-11-15T04:11:55.550Z,17.53
2022-11-15T04:15:09.559Z,19.63
2022-11-15T04:18:15.186Z,18.00
2022-11-15T04:21:38.087Z,17.00
2022-11-15T04:24:45.355Z,17.23
2022-11-15T04:27:50.868Z,17.30
2022-11-15T04:30:56.700Z,18.07
2022-11-15T04:34:02.399Z,18.77
2022-11-15T04:37:17.218Z,19.93
2022-11-15T04:40:24.288Z,17.70
2022-11-15T04:43:30.422Z,17.57
2022-11-15T04:46:38.431Z,17.90
2022-11-15T04:49:45.117Z,18.17
2022-11-15T04:52:54.045Z,18.67
2022-11-15T04:56:00.701Z,18.70
2022-11-15T04:59:06.660Z,18.97
2022-11-15T05:02:12.632Z,17.33
2022-11-15T05:05:20.115Z,18.60
2022-11-15T05:08:26.179Z,17.83
2022-11-15T05:11:33.651Z,18.90
2022-11-15T05:14:41.271Z,19.90
2022-11-15T05:17:50.458Z,18.03
2022-11-15T05:20:56.067Z,17.83
2022-11-15T05:24:01.948Z,19.47
2022-11-15T05:27:08.811Z,16.67
2022-11-15T05:30:14.803Z,17.50
2022-11-15T05:33:20.750Z,16.57
2022-11-15T05:36:33.816Z,17.03
2022-11-15T05:39:39.404Z,16.60
2022-11-15T05:42:47.764Z,16.57
2022-11-15T05:45:53.364Z,16.80
2022-11-15T05:48:59.936Z,15.50
2022-11-15T05:52:09.349Z,14.07
2022-11-15T05:55:15.962Z,14.20
2022-11-15T05:58:22.940Z,15.37
2022-11-15T06:01:29.338Z,15.07
2022-11-15T06:04:34.769Z,15.77
2022-11-15T06:07:40.373Z,15.27
2022-11-15T06:10:45.902Z,16.37
2022-11-15T06:13:53.294Z,15.47
2022-11-15T06:16:59.007Z,15.03
2022-11-15T06:20:05.499Z,14.63
2022-11-15T06:23:11.171Z,16.47
2022-11-15T06:26:16.544Z,15.70
2022-11-15T06:29:29.763Z,16.70
2022-11-15T06:32:35.885Z,15.73
2022-11-15T06:35:44.550Z,17.40
2022-11-15T06:38:50.436Z,16.23
2022-11-15T06:41:57.495Z,15.90
2022-11-15T06:45:05.070Z,16.57
2022-11-15T06:48:10.724Z,16.53
2022-11-15T06:51:16.361Z,16.37
2022-11-15T06:54:23.425Z,16.40
2022-11-15T06:57:28.875Z,19.37
2022-11-15T07:00:35.883Z,25.27
2022-11-15T07:03:43.460Z,20.90
2022-11-15T07:06:49.586Z,19.73
2022-11-15T07:09:54.710Z,19.73
2022-11-15T07:13:00.287Z,19.73
2022-11-15T07:16:09.791Z,18.63
2022-11-15T07:19:15.457Z,18.10
2022-11-15T07:22:21.065Z,16.20
2022-11-15T07:25:26.789Z,16.83
2022-11-15T07:28:32.560Z,17.87
2022-11-15T07:31:40.067Z,18.00
2022-11-15T07:34:47.702Z,20.17
2022-11-15T07:37:57.643Z,18.30
2022-11-15T07:41:05.041Z,18.83
2022-11-15T07:44:10.515Z,17.47
2022-11-15T07:47:17.607Z,17.27
2022-11-15T07:50:23.817Z,19.50
2022-11-15T07:53:29.744Z,18.77
2022-11-15T07:56:35.428Z,18.30
2022-11-15T07:59:41.035Z,18.93
2022-11-15T08:02:48.268Z,19.17
2022-11-15T08:05:54.062Z,23.93
2022-11-15T08:08:59.521Z,23.90
2022-11-15T08:12:04.892Z,20.83
2022-11-15T08:15:11.399Z,18.83
2022-11-15T08:18:18.765Z,17.90
2022-11-15T08:21:24.966Z,22.73
2022-11-15T08:24:30.398Z,22.20
2022-11-15T08:27:36.275Z,20.37
2022-11-15T08:30:46.475Z,18.80
2022-11-15T08:33:53.640Z,18.47
2022-11-15T08:36:59.544Z,19.83
2022-11-15T08:40:06.147Z,20.00
2022-11-15T08:43:11.563Z,18.43
2022-11-15T08:46:17.734Z,17.40
2022-11-15T08:49:24.526Z,19.30
2022-11-15T08:52:30.155Z,17.87
2022-11-15T08:55:38.583Z,19.23
2022-11-15T08:58:44.714Z,18.30
2022-11-15T09:01:50.229Z,17.97
2022-11-15T09:04:57.399Z,17.73
2022-11-15T09:08:18.790Z,17.10
2022-11-15T09:11:28.475Z,17.47
2022-11-15T09:14:34.593Z,18.37
2022-11-15T09:17:40.261Z,17.53
2022-11-15T09:20:47.130Z,18.73
2022-11-15T09:23:53.982Z,17.47
2022-11-15T09:26:59.854Z,18.50
2022-11-15T09:30:06.735Z,19.60
2022-11-15T09:33:14.181Z,18.80
2022-11-15T09:36:20.942Z,18.47
2022-11-15T09:39:26.235Z,19.23
2022-11-15T09:42:47.722Z,18.13
2022-11-15T09:46:04.139Z,18.03
2022-11-15T09:49:14.241Z,18.03
2022-11-15T09:52:15.677Z,17.20
2022-11-15T09:55:02.359Z,17.73
2022-11-15T09:57:54.394Z,17.90
2022-11-15T10:00:47.190Z,17.33
2022-11-15T10:03:37.544Z,16.13
2022-11-15T10:06:26.874Z,17.07
2022-11-15T10:09:23.850Z,17.10
2022-11-15T10:12:11.866Z,17.90
2022-11-15T10:15:03.272Z,16.50
2022-11-15T10:18:20.155Z,16.20
2022-11-15T10:21:17.604Z,16.23
2022-11-15T10:24:04.144Z,14.87
2022-11-15T10:26:57.335Z,15.70
2022-11-15T10:29:46.577Z,14.67
2022-11-15T10:32:38.328Z,14.63
2022-11-15T10:35:27.930Z,14.63
2022-11-15T10:38:14.903Z,14.70
2022-11-15T10:41:09.971Z,14.20
2022-11-15T10:44:26.821Z,14.00
2022-11-15T10:47:28.818Z,13.50
2022-11-15T10:50:30.163Z,14.70
2022-11-15T10:53:23.265Z,13.57
2022-11-15T10:56:14.459Z,14.43
2022-11-15T10:59:00.961Z,13.10
2022-11-15T11:01:50.391Z,13.43
2022-11-15T11:04:51.977Z,14.67
2022-11-15T11:07:38.990Z,13.67
2022-11-15T11:13:33.701Z,13.63
2022-11-15T11:16:39.139Z,13.50
2022-11-15T11:19:51.990Z,11.90
2022-11-15T11:22:50.392Z,12.80
2022-11-15T11:25:42.091Z,13.07
2022-11-15T11:28:43.526Z,12.60
2022-11-15T11:31:38.087Z,12.90
2022-11-15T11:34:38.901Z,12.33
2022-11-15T11:37:36.132Z,13.00
2022-11-15T11:40:31.939Z,12.93
2022-11-15T11:43:29.059Z,12.27
2022-11-15T11:46:29.358Z,13.97
2022-11-15T11:49:22.710Z,13.03
2022-11-15T11:52:18.067Z,12.73
2022-11-15T11:55:16.838Z,12.20
2022-11-15T11:58:13.524Z,12.37
2022-11-15T12:01:12.520Z,12.90
2022-11-15T12:04:03.599Z,12.00
2022-11-15T12:06:54.505Z,13.83
2022-11-15T12:09:46.612Z,12.63
2022-11-15T12:12:43.597Z,14.30
2022-11-15T12:15:35.425Z,13.43
2022-11-15T12:18:22.070Z,14.13
2022-11-15T12:21:28.109Z,14.17
2022-11-15T12:24:22.137Z,13.50
2022-11-15T12:27:21.940Z,12.30
2022-11-15T12:30:16.539Z,12.67
2022-11-15T12:33:03.939Z,12.73
2022-11-15T12:36:00.446Z,12.43
2022-11-15T12:38:59.198Z,13.27
2022-11-15T12:42:41.500Z,11.77
2022-11-15T12:45:32.467Z,11.93
2022-11-15T12:48:47.560Z,12.20
2022-11-15T12:52:09.064Z,12.40
2022-11-15T12:55:01.317Z,11.73
2022-11-15T12:57:48.041Z,12.17
2022-11-15T13:00:48.346Z,12.00
2022-11-15T13:03:35.777Z,12.53
2022-11-15T13:06:42.076Z,12.03
2022-11-15T13:09:57.321Z,11.37
2022-11-15T13:12:56.266Z,11.17
2022-11-15T13:15:57.993Z,11.50
2022-11-15T13:18:44.561Z,10.80
2022-11-15T13:21:48.787Z,11.40
2022-11-15T13:24:35.475Z,10.77
2022-11-15T13:27:22.777Z,10.27
2022-11-15T13:30:18.009Z,11.53
2022-11-15T13:33:12.968Z,10.80
2022-11-15T13:36:03.095Z,10.83
2022-11-15T13:38:58.879Z,10.67
2022-11-15T13:41:50.227Z,10.27
2022-11-15T13:44:36.889Z,10.10
2022-11-15T13:47:23.702Z,10.87
2022-11-15T13:50:14.900Z,9.83
2022-11-15T13:53:05.200Z,10.20
2022-11-15T13:55:53.620Z,10.37
2022-11-15T13:58:41.376Z,10.70
2022-11-15T14:01:34.092Z,10.30
2022-11-15T14:04:23.748Z,11.20
2022-11-15T14:07:19.293Z,11.60
2022-11-15T14:10:26.833Z,10.57
2022-11-15T14:13:29.894Z,10.33
2022-11-15T14:16:19.818Z,12.60
2022-11-15T14:19:08.079Z,11.13
2022-11-15T14:22:12.491Z,11.30
2022-11-15T14:25:18.890Z,11.47
2022-11-15T14:28:18.261Z,10.83
2022-11-15T14:31:12.836Z,11.00
2022-11-15T14:33:59.605Z,11.33
2022-11-15T14:36:46.371Z,11.03
2022-11-15T14:39:33.184Z,10.87
2022-11-15T14:42:22.523Z,11.57
2022-11-15T14:45:14.204Z,10.63
2022-11-15T14:48:01.054Z,11.33
2022-11-15T14:50:47.842Z,11.80
2022-11-15T14:53:34.742Z,11.57
2022-11-15T14:56:21.486Z,11.70
2022-11-15T14:59:09.604Z,11.90
2022-11-15T15:01:56.511Z,11.13
2022-11-15T15:04:42.962Z,11.53
2022-11-15T15:07:29.974Z,12.33
2022-11-15T15:10:39.022Z,12.13
2022-11-15T15:13:26.402Z,12.67
2022-11-15T15:16:14.718Z,11.73
2022-11-15T15:19:01.379Z,12.23
2022-11-15T15:21:48.098Z,11.90
2022-11-15T15:24:34.725Z,12.03
2022-11-15T15:27:22.271Z,11.77
2022-11-15T15:30:10.625Z,12.67
2022-11-15T15:33:00.960Z,12.20
2022-11-15T15:35:47.517Z,12.77
2022-11-15T15:38:34.937Z,12.70
2022-11-15T15:41:22.360Z,12.87
2022-11-15T15:44:08.988Z,13.77
2022-11-15T15:46:55.529Z,14.43
2022-11-15T15:49:44.816Z,14.73
2022-11-15T15:52:32.604Z,14.20
2022-11-15T15:55:19.158Z,15.37
2022-11-15T15:58:08.099Z,16.03
2022-11-15T16:00:56.757Z,16.20
2022-11-15T16:03:43.340Z,16.93
2022-11-15T16:06:39.747Z,17.37
2022-11-15T16:09:41.558Z,16.70
2022-11-15T16:12:28.368Z,18.17
2022-11-15T16:15:16.730Z,17.30
2022-11-15T16:18:09.118Z,18.20
2022-11-15T16:20:58.261Z,19.43
2022-11-15T16:23:47.700Z,20.43
2022-11-15T16:26:38.158Z,21.87
2022-11-15T16:29:26.301Z,21.33
2022-11-15T16:32:18.946Z,23.20
2022-11-15T16:35:09.628Z,24.10
2022-11-15T16:37:57.948Z,22.10
2022-11-15T16:40:50.631Z,21.13
2022-11-15T16:43:38.233Z,21.07
2022-11-15T16:46:28.166Z,20.47
2022-11-15T16:49:15.578Z,22.47
2022-11-15T16:52:02.432Z,25.03
2022-11-15T16:54:49.195Z,51.40
2022-11-15T16:57:37.632Z,27.50
2022-11-15T17:00:24.247Z,29.53
2022-11-15T17:03:11.155Z,22.07
2022-11-15T17:06:00.639Z,20.70
2022-11-15T17:08:47.452Z,21.43
2022-11-15T17:11:34.575Z,21.77
2022-11-15T17:14:22.873Z,20.80
2022-11-15T17:17:10.866Z,22.53
2022-11-15T17:19:57.718Z,20.57
2022-11-15T17:22:44.470Z,21.60
2022-11-15T17:25:31.129Z,20.33
2022-11-15T17:28:18.360Z,20.37
2022-11-15T17:31:12.822Z,21.47
2022-11-15T17:33:59.643Z,22.00
2022-11-15T17:36:46.494Z,20.97
2022-11-15T17:39:33.991Z,19.37
2022-11-15T17:42:22.119Z,19.47
2022-11-15T17:45:10.636Z,19.97
2022-11-15T17:47:59.785Z,20.67
2022-11-15T17:50:56.217Z,20.87
2022-11-15T17:53:45.118Z,18.37
2022-11-15T17:56:31.806Z,18.10
2022-11-15T17:59:21.400Z,21.93
2022-11-15T18:02:08.692Z,23.80
2022-11-15T18:04:56.818Z,19.00
2022-11-15T18:07:43.755Z,19.17
2022-11-15T18:10:30.594Z,20.07
2022-11-15T18:13:17.167Z,21.27
2022-11-15T18:16:04.710Z,19.67
2022-11-15T18:18:51.200Z,21.40
2022-11-15T18:21:56.388Z,23.37
2022-11-15T18:24:44.911Z,23.33
2022-11-15T18:27:31.759Z,19.27
2022-11-15T18:30:18.651Z,18.40
2022-11-15T18:33:05.211Z,18.77
2022-11-15T18:35:59.282Z,18.17
2022-11-15T18:38:47.698Z,17.80
2022-11-15T18:41:35.833Z,19.57
2022-11-15T18:44:22.562Z,19.37
2022-11-15T18:47:09.474Z,17.73
2022-11-15T18:49:58.470Z,17.20
2022-11-15T18:52:44.857Z,17.07
2022-11-15T18:55:33.044Z,16.87
2022-11-15T18:58:19.797Z,17.67
2022-11-15T19:01:08.181Z,17.90
2022-11-15T19:03:57.759Z,22.67
2022-11-15T19:06:47.097Z,20.00
2022-11-15T19:09:34.924Z,17.03
2022-11-15T19:12:23.170Z,18.03
2022-11-15T19:15:10.685Z,20.10
2022-11-15T19:17:57.096Z,17.27
2022-11-15T19:20:44.041Z,14.20
2022-11-15T19:23:34.716Z,13.50
2022-11-15T19:26:23.828Z,16.77
2022-11-15T19:29:12.215Z,15.00
2022-11-15T19:31:58.629Z,14.13
2022-11-15T19:34:45.740Z,15.13
2022-11-15T19:37:32.477Z,16.63
2022-11-15T19:40:19.396Z,15.93
2022-11-15T19:43:06.174Z,15.60
2022-11-15T19:46:00.952Z,16.10
2022-11-15T19:48:49.797Z,14.87
2022-11-15T19:51:36.778Z,13.83
2022-11-15T19:54:23.326Z,14.93
2022-11-15T19:57:10.205Z,16.13
2022-11-15T19:59:59.196Z,15.03
2022-11-15T20:02:52.524Z,14.00
2022-11-15T20:05:39.312Z,14.20
2022-11-15T20:08:27.292Z,14.27
2022-11-15T20:11:14.638Z,13.73
2022-11-15T20:14:03.009Z,14.90
2022-11-15T20:16:54.053Z,14.50
2022-11-15T20:19:42.210Z,13.13
2022-11-15T20:22:29.007Z,14.27
2022-11-15T20:25:16.525Z,14.57
2022-11-15T20:28:03.039Z,13.97
2022-11-15T20:30:53.312Z,13.57
2022-11-15T20:33:40.146Z,15.50
2022-11-15T20:36:28.970Z,14.10
2022-11-15T20:39:15.435Z,14.17
2022-11-15T20:42:02.103Z,13.93
2022-11-15T20:44:48.834Z,15.20
2022-11-15T20:47:35.668Z,15.40
2022-11-15T20:50:41.764Z,15.27
2022-11-15T20:53:31.606Z,13.90
2022-11-15T20:56:20.931Z,12.83
2022-11-15T20:59:07.765Z,13.80
2022-11-15T21:01:54.561Z,14.97
2022-11-15T21:04:41.400Z,14.90
2022-11-15T21:07:28.348Z,13.27
2022-11-15T21:10:33.730Z,14.07
2022-11-15T21:13:20.573Z,14.83
2022-11-15T21:16:08.085Z,15.27
2022-11-15T21:18:54.982Z,16.13
2022-11-15T21:21:41.931Z,15.97
2022-11-15T21:24:28.655Z,15.53
2022-11-15T21:27:16.555Z,16.53
2022-11-15T21:30:03.484Z,15.67
2022-11-15T21:32:50.070Z,15.60
2022-11-15T21:35:36.890Z,16.43
2022-11-15T21:38:24.737Z,15.10
2022-11-15T21:41:11.527Z,18.30
2022-11-15T21:44:00.562Z,16.47
2022-11-15T21:46:48.751Z,16.43
2022-11-15T21:49:35.860Z,18.73
2022-11-15T21:52:22.634Z,21.07
2022-11-15T21:55:10.444Z,15.77
2022-11-15T21:57:57.726Z,17.67
2022-11-15T22:01:03.697Z,17.13
2022-11-15T22:03:50.388Z,18.93
2022-11-15T22:06:41.120Z,14.93
2022-11-15T22:09:28.567Z,16.60
2022-11-15T22:12:15.180Z,15.83
2022-11-15T22:15:01.972Z,18.37
2022-11-15T22:18:01.863Z,17.27
2022-11-15T22:20:54.675Z,16.50
2022-11-15T22:23:42.528Z,15.07
2022-11-15T22:26:29.045Z,19.30
2022-11-15T22:29:15.775Z,19.30
2022-11-15T22:32:02.531Z,18.23
2022-11-15T22:34:50.607Z,16.17
2022-11-15T22:37:37.483Z,16.93
2022-11-15T22:40:24.546Z,15.87
2022-11-15T22:43:12.960Z,16.53
2022-11-15T22:46:00.747Z,14.47
2022-11-15T22:48:47.342Z,15.40
2022-11-15T22:51:35.787Z,15.47
2022-11-15T22:54:22.245Z,15.10
2022-11-15T22:57:08.951Z,14.37
2022-11-15T22:59:55.755Z,13.77
2022-11-15T23:02:42.635Z,14.33
2022-11-15T23:05:29.661Z,12.90
2022-11-15T23:08:18.447Z,14.30
2022-11-15T23:11:23.292Z,14.90
2022-11-15T23:14:10.657Z,11.17
2022-11-15T23:16:57.042Z,13.47
2022-11-15T23:19:43.917Z,13.47
2022-11-15T23:22:56.384Z,13.33
2022-11-15T23:25:45.398Z,13.07
2022-11-15T23:28:34.602Z,13.23
2022-11-15T23:31:38.609Z,13.40
2022-11-15T23:34:25.870Z,13.67
2022-11-15T23:37:15.231Z,12.17
2022-11-15T23:40:01.871Z,13.57
2022-11-15T23:42:50.049Z,13.20
2022-11-15T23:45:39.003Z,14.07
2022-11-15T23:48:27.564Z,14.10
2022-11-15T23:51:14.556Z,14.40
2022-11-15T23:54:01.223Z,14.80
2022-11-15T23:56:47.923Z,14.60
2022-11-15T23:59:36.184Z,15.30
